createdAt,value
2022-10-18T00:02:20.747Z,16.48
2022-10-18T00:04:50.348Z,10.15
2022-10-18T00:07:18.864Z,12.25
2022-10-18T00:09:47.374Z,11.70
2022-10-18T00:12:16.110Z,7.95
2022-10-18T00:14:44.620Z,14.50
2022-10-18T00:17:12.804Z,8.00
2022-10-18T00:19:40.976Z,13.30
2022-10-18T00:22:10.562Z,11.65
2022-10-18T00:24:39.084Z,14.23
2022-10-18T00:27:07.640Z,25.95
2022-10-18T00:29:36.270Z,11.95
2022-10-18T00:32:04.908Z,11.73
2022-10-18T00:34:33.411Z,7.28
2022-10-18T00:37:01.923Z,10.80
2022-10-18T00:39:31.553Z,12.95
2022-10-18T00:41:59.804Z,9.45
2022-10-18T00:45:07.349Z,15.25
2022-10-18T00:47:36.810Z,15.43
2022-10-18T00:50:08.585Z,7.80
2022-10-18T00:52:41.598Z,14.65
2022-10-18T00:55:12.414Z,8.48
2022-10-18T00:57:44.328Z,8.35
2022-10-18T01:00:15.017Z,12.15
2022-10-18T01:02:46.332Z,11.65
2022-10-18T01:05:16.878Z,14.40
2022-10-18T01:08:16.091Z,13.07
2022-10-18T01:10:56.830Z,8.88
2022-10-18T01:13:41.509Z,14.20
2022-10-18T01:16:21.158Z,13.30
2022-10-18T01:18:56.088Z,12.63
2022-10-18T01:21:39.164Z,13.50
2022-10-18T01:25:04.641Z,16.65
2022-10-18T01:27:50.693Z,10.88
2022-10-18T01:30:47.244Z,16.00
2022-10-18T01:33:29.263Z,12.23
2022-10-18T01:36:05.396Z,15.05
2022-10-18T01:38:36.933Z,9.27
2022-10-18T01:41:11.745Z,16.85
2022-10-18T01:43:45.296Z,17.63
2022-10-18T01:46:21.121Z,15.65
2022-10-18T01:48:50.148Z,12.82
2022-10-18T01:51:21.085Z,8.32
2022-10-18T01:53:49.625Z,14.02
2022-10-18T01:56:43.816Z,16.52
2022-10-18T01:59:34.419Z,12.02
2022-10-18T02:02:15.594Z,8.02
2022-10-18T02:04:52.085Z,13.13
2022-10-18T02:07:30.600Z,13.00
2022-10-18T02:10:09.703Z,13.55
2022-10-18T02:12:41.395Z,14.00
2022-10-18T02:15:14.190Z,11.35
2022-10-18T02:17:46.453Z,9.30
2022-10-18T02:20:19.017Z,10.75
2022-10-18T02:22:50.485Z,14.15
2022-10-18T02:25:23.899Z,15.40
2022-10-18T02:27:56.260Z,14.40
2022-10-18T02:30:32.411Z,13.13
2022-10-18T02:33:10.587Z,14.38
2022-10-18T02:35:45.932Z,11.75
2022-10-18T02:38:17.723Z,24.23
2022-10-18T02:40:45.927Z,13.85
2022-10-18T02:43:15.750Z,12.38
2022-10-18T02:45:44.736Z,15.95
2022-10-18T02:48:14.336Z,12.43
2022-10-18T02:50:42.909Z,14.05
2022-10-18T02:53:11.588Z,12.70
2022-10-18T02:55:40.155Z,10.85
2022-10-18T02:58:08.637Z,10.50
2022-10-18T03:00:37.285Z,12.27
2022-10-18T03:03:05.590Z,16.90
2022-10-18T03:05:35.400Z,15.27
2022-10-18T03:08:03.997Z,10.77
2022-10-18T03:10:32.700Z,19.77
2022-10-18T03:13:01.392Z,8.93
2022-10-18T03:15:29.890Z,13.05
2022-10-18T03:17:58.338Z,10.40
2022-10-18T03:20:26.719Z,12.25
2022-10-18T03:22:56.631Z,10.75
2022-10-18T03:25:25.188Z,12.75
2022-10-18T03:27:53.671Z,10.48
2022-10-18T03:30:22.206Z,13.55
2022-10-18T03:32:50.388Z,13.10
2022-10-18T03:35:18.823Z,12.05
2022-10-18T03:37:47.172Z,33.33
2022-10-18T03:40:17.019Z,10.90
2022-10-18T03:42:45.623Z,13.38
2022-10-18T03:45:14.222Z,15.45
2022-10-18T03:47:42.526Z,20.75
2022-10-18T03:50:11.173Z,13.52
2022-10-18T03:52:39.763Z,17.80
2022-10-18T03:55:09.123Z,10.07
2022-10-18T03:57:38.868Z,20.15
2022-10-18T04:00:09.467Z,9.63
2022-10-18T04:02:40.726Z,11.50
2022-10-18T04:05:10.207Z,15.55
2022-10-18T04:07:38.657Z,16.08
2022-10-18T04:10:08.444Z,10.27
2022-10-18T04:12:38.319Z,17.77
2022-10-18T04:15:08.077Z,18.52
2022-10-18T04:17:36.253Z,14.65
2022-10-18T04:20:04.772Z,12.90
2022-10-18T04:22:33.254Z,11.70
2022-10-18T04:25:01.449Z,16.45
2022-10-18T04:27:30.085Z,9.13
2022-10-18T04:29:59.768Z,17.48
2022-10-18T04:32:29.349Z,8.25
2022-10-18T04:34:57.860Z,10.70
2022-10-18T04:37:26.345Z,13.32
2022-10-18T04:39:54.849Z,12.25
2022-10-18T04:42:23.154Z,11.07
2022-10-18T04:44:51.416Z,9.63
2022-10-18T04:47:21.232Z,12.25
2022-10-18T04:49:49.746Z,11.05
2022-10-18T04:52:18.228Z,9.93
2022-10-18T04:54:46.943Z,13.15
2022-10-18T04:57:15.209Z,11.75
2022-10-18T04:59:43.413Z,10.23
2022-10-18T05:02:11.969Z,9.60
2022-10-18T05:04:41.524Z,10.15
2022-10-18T05:07:10.134Z,16.45
2022-10-18T05:09:38.357Z,11.25
2022-10-18T05:12:07.071Z,8.80
2022-10-18T05:14:35.645Z,24.50
2022-10-18T05:17:04.195Z,17.95
2022-10-18T05:19:32.726Z,11.90
2022-10-18T05:22:02.348Z,21.15
2022-10-18T05:24:30.919Z,9.63
2022-10-18T05:26:59.274Z,10.52
2022-10-18T05:32:01.708Z,14.32
2022-10-18T05:34:31.973Z,11.48
2022-10-18T05:37:02.218Z,19.80
2022-10-18T05:39:30.752Z,11.65
2022-10-18T05:41:59.867Z,10.10
2022-10-18T05:44:28.424Z,16.23
2022-10-18T05:46:56.655Z,11.38
2022-10-18T05:49:25.181Z,16.67
2022-10-18T05:51:53.630Z,15.35
2022-10-18T05:54:23.270Z,16.58
2022-10-18T05:56:51.501Z,8.77
2022-10-18T05:59:19.999Z,11.52
2022-10-18T06:01:48.489Z,10.93
2022-10-18T06:04:17.923Z,12.82
2022-10-18T06:06:46.453Z,11.90
2022-10-18T06:09:15.059Z,17.92
2022-10-18T06:11:44.661Z,16.48
2022-10-18T06:14:13.348Z,12.85
2022-10-18T06:16:41.908Z,18.58
2022-10-18T06:19:10.450Z,17.90
2022-10-18T06:21:38.682Z,14.05
2022-10-18T06:24:07.829Z,10.05
2022-10-18T06:26:36.348Z,12.32
2022-10-18T06:29:06.160Z,15.20
2022-10-18T06:31:34.429Z,17.73
2022-10-18T06:34:02.908Z,18.98
2022-10-18T06:36:31.412Z,11.57
2022-10-18T06:39:00.022Z,8.30
2022-10-18T06:41:28.642Z,13.25
2022-10-18T06:44:08.766Z,8.93
2022-10-18T06:46:38.505Z,14.50
2022-10-18T06:49:07.025Z,12.20
2022-10-18T06:51:35.589Z,17.50
2022-10-18T06:54:17.633Z,11.45
2022-10-18T06:56:47.314Z,19.00
2022-10-18T06:59:16.011Z,11.43
2022-10-18T07:01:45.633Z,13.68
2022-10-18T07:04:14.158Z,24.10
2022-10-18T07:06:42.701Z,15.75
2022-10-18T07:09:11.316Z,12.52
2022-10-18T07:11:40.195Z,14.35
2022-10-18T07:14:12.543Z,11.82
2022-10-18T07:16:45.310Z,14.50
2022-10-18T07:19:14.881Z,22.73
2022-10-18T07:21:43.363Z,14.95
2022-10-18T07:24:11.841Z,15.85
2022-10-18T07:26:40.033Z,23.70
2022-10-18T07:29:11.595Z,23.65
2022-10-18T07:31:40.876Z,11.30
2022-10-18T07:34:14.388Z,10.27
2022-10-18T07:36:43.149Z,11.85
2022-10-18T07:39:11.647Z,11.20
2022-10-18T07:41:40.264Z,20.88
2022-10-18T07:44:09.021Z,10.15
2022-10-18T07:46:37.337Z,14.48
2022-10-18T07:49:05.663Z,10.10
2022-10-18T07:51:36.032Z,13.88
2022-10-18T07:54:04.703Z,7.13
2022-10-18T07:56:33.272Z,19.98
2022-10-18T07:59:01.837Z,13.30
2022-10-18T08:01:30.485Z,7.75
2022-10-18T08:04:06.110Z,14.48
2022-10-18T08:06:36.703Z,5.80
2022-10-18T08:09:05.619Z,10.98
2022-10-18T08:11:34.162Z,9.82
2022-10-18T08:14:02.659Z,8.88
2022-10-18T08:19:01.828Z,4.55
2022-10-18T08:21:30.324Z,4.03
2022-10-18T08:23:59.920Z,10.85
2022-10-18T08:26:28.421Z,6.03
2022-10-18T08:29:17.771Z,4.13
2022-10-18T08:31:45.264Z,7.53
2022-10-18T08:34:18.628Z,6.35
2022-10-18T08:36:48.286Z,3.42
2022-10-18T08:39:17.865Z,11.15
2022-10-18T08:42:15.269Z,9.95
2022-10-18T08:44:47.298Z,9.13
2022-10-18T08:47:19.799Z,5.55
2022-10-18T08:49:52.595Z,3.95
2022-10-18T08:52:33.418Z,5.10
2022-10-18T08:55:09.901Z,3.83
2022-10-18T08:57:38.457Z,8.15
2022-10-18T09:00:16.006Z,5.97
2022-10-18T09:03:13.781Z,3.40
2022-10-18T09:05:50.150Z,6.30
2022-10-18T09:08:43.181Z,6.78
2022-10-18T09:11:28.420Z,3.65
2022-10-18T09:14:53.172Z,3.42
2022-10-18T09:17:33.086Z,4.70
2022-10-18T09:20:22.973Z,4.35
2022-10-18T09:22:57.780Z,2.92
2022-10-18T09:25:35.331Z,2.30
2022-10-18T09:28:20.267Z,4.43
2022-10-18T09:30:59.782Z,1.88
2022-10-18T09:33:44.876Z,4.90
2022-10-18T09:36:20.292Z,4.47
2022-10-18T09:38:53.300Z,2.10
2022-10-18T09:41:26.813Z,2.90
2022-10-18T09:44:02.361Z,1.85
2022-10-18T09:46:35.029Z,1.58
2022-10-18T09:49:06.886Z,4.22
2022-10-18T09:51:38.022Z,4.63
2022-10-18T09:54:22.787Z,1.95
2022-10-18T09:56:58.442Z,1.92
2022-10-18T09:59:37.513Z,2.25
2022-10-18T10:02:07.008Z,3.80
2022-10-18T10:04:35.288Z,4.28
2022-10-18T10:07:08.090Z,11.32
2022-10-18T10:09:45.054Z,5.22
2022-10-18T10:12:29.023Z,2.00
2022-10-18T10:15:18.783Z,2.50
2022-10-18T10:17:55.992Z,2.05
2022-10-18T10:20:27.901Z,1.52
2022-10-18T10:23:05.974Z,1.85
2022-10-18T10:25:37.972Z,5.38
2022-10-18T10:28:14.223Z,4.38
2022-10-18T10:30:43.937Z,2.42
2022-10-18T10:33:35.148Z,2.30
2022-10-18T10:36:06.884Z,1.70
2022-10-18T10:38:35.157Z,1.35
2022-10-18T10:41:03.416Z,2.50
2022-10-18T10:43:39.673Z,2.13
2022-10-18T10:46:13.322Z,1.02
2022-10-18T10:48:49.366Z,2.95
2022-10-18T10:51:29.764Z,4.38
2022-10-18T10:54:03.196Z,1.55
2022-10-18T10:56:34.468Z,2.67
2022-10-18T10:59:14.147Z,6.22
2022-10-18T11:01:43.933Z,4.45
2022-10-18T11:04:29.102Z,3.33
2022-10-18T11:07:07.810Z,1.30
2022-10-18T11:10:02.452Z,3.03
2022-10-18T11:12:35.534Z,1.23
2022-10-18T11:15:18.383Z,1.98
2022-10-18T11:18:02.681Z,1.65
2022-10-18T11:20:36.358Z,7.97
2022-10-18T11:23:09.401Z,2.40
2022-10-18T11:25:52.254Z,4.00
2022-10-18T11:28:36.762Z,4.03
2022-10-18T11:31:16.183Z,2.90
2022-10-18T11:34:10.580Z,4.28
2022-10-18T11:36:57.847Z,2.17
2022-10-18T11:39:50.827Z,5.88
2022-10-18T11:42:30.986Z,8.63
2022-10-18T11:45:16.111Z,2.70
2022-10-18T11:50:35.427Z,2.75
2022-10-18T11:53:21.171Z,10.18
2022-10-18T11:56:04.833Z,6.93
2022-10-18T11:58:57.961Z,2.35
2022-10-18T12:01:34.973Z,3.42
2022-10-18T12:04:10.304Z,2.47
2022-10-18T12:06:42.672Z,6.18
2022-10-18T12:09:24.501Z,3.42
2022-10-18T12:11:59.498Z,9.85
2022-10-18T12:14:31.853Z,7.93
2022-10-18T12:17:39.639Z,4.18
2022-10-18T12:19:58.491Z,2.78
2022-10-18T12:22:35.653Z,1.30
2022-10-18T12:25:04.193Z,3.25
2022-10-18T12:27:41.966Z,3.55
2022-10-18T12:30:24.357Z,1.27
2022-10-18T12:33:26.665Z,1.10
2022-10-18T12:36:07.168Z,3.22
2022-10-18T12:38:40.609Z,3.53
2022-10-18T12:41:17.732Z,5.60
2022-10-18T12:43:54.115Z,1.08
2022-10-18T12:46:23.113Z,2.50
2022-10-18T12:49:04.806Z,2.05
2022-10-18T12:51:33.478Z,0.93
2022-10-18T12:54:13.161Z,0.98
2022-10-18T12:56:43.024Z,4.13
2022-10-18T12:59:42.059Z,5.55
2022-10-18T13:02:27.427Z,0.80
2022-10-18T13:05:00.376Z,0.30
2022-10-18T13:07:43.142Z,0.68
2022-10-18T13:10:44.933Z,0.50
2022-10-18T13:13:50.543Z,0.20
2022-10-18T13:16:39.960Z,3.22
2022-10-18T13:19:23.160Z,0.75
2022-10-18T13:22:11.791Z,2.30
2022-10-18T13:24:45.282Z,0.75
2022-10-18T13:27:35.965Z,0.90
2022-10-18T13:30:47.964Z,1.02
2022-10-18T13:33:34.087Z,0.38
2022-10-18T13:36:06.243Z,0.47
2022-10-18T13:38:48.430Z,0.73
2022-10-18T13:41:20.412Z,0.63
2022-10-18T13:44:26.009Z,0.30
2022-10-18T13:47:35.197Z,1.00
2022-10-18T13:50:37.369Z,6.45
2022-10-18T13:53:44.050Z,4.20
2022-10-18T13:56:37.744Z,0.55
2022-10-18T13:59:32.789Z,0.38
2022-10-18T14:02:59.651Z,0.43
2022-10-18T14:05:52.083Z,1.63
2022-10-18T14:08:26.254Z,0.55
2022-10-18T14:11:04.158Z,2.75
2022-10-18T14:13:46.425Z,0.35
2022-10-18T14:16:36.057Z,0.40
2022-10-18T14:19:18.096Z,0.30
2022-10-18T14:21:56.679Z,0.60
2022-10-18T14:24:27.528Z,10.25
2022-10-18T14:27:18.936Z,0.82
2022-10-18T14:29:47.704Z,1.65
2022-10-18T14:32:28.010Z,0.20
2022-10-18T14:35:27.229Z,2.00
2022-10-18T14:37:47.803Z,2.58
2022-10-18T14:40:37.898Z,1.13
2022-10-18T14:43:12.531Z,0.35
2022-10-18T14:45:41.816Z,1.45
2022-10-18T14:48:17.276Z,0.55
2022-10-18T14:50:50.076Z,3.40
2022-10-18T14:53:22.027Z,0.22
2022-10-18T14:56:00.727Z,2.72
2022-10-18T14:58:29.504Z,0.28
2022-10-18T15:00:58.381Z,0.60
2022-10-18T15:03:28.548Z,0.85
2022-10-18T15:06:00.731Z,0.50
2022-10-18T15:08:37.151Z,0.30
2022-10-18T15:11:10.499Z,6.00
2022-10-18T15:13:50.409Z,0.30
2022-10-18T15:16:20.180Z,3.05
2022-10-18T15:19:03.899Z,3.50
2022-10-18T15:21:33.136Z,1.95
2022-10-18T15:24:22.391Z,2.13
2022-10-18T15:26:52.769Z,0.32
2022-10-18T15:29:24.707Z,0.68
2022-10-18T15:31:53.526Z,0.50
2022-10-18T15:34:25.822Z,0.65
2022-10-18T15:36:56.772Z,0.90
2022-10-18T15:39:28.137Z,0.20
2022-10-18T15:41:58.174Z,0.80
2022-10-18T15:44:31.589Z,0.25
2022-10-18T15:47:20.599Z,1.50
2022-10-18T15:49:56.893Z,0.30
2022-10-18T15:52:39.178Z,5.18
2022-10-18T15:55:58.333Z,2.80
2022-10-18T15:58:31.895Z,2.67
2022-10-18T16:01:04.323Z,4.50
2022-10-18T16:03:35.550Z,2.70
2022-10-18T16:06:09.935Z,0.82
2022-10-18T16:08:42.313Z,0.95
2022-10-18T16:11:16.408Z,0.60
2022-10-18T16:13:45.311Z,1.67
2022-10-18T16:16:17.984Z,1.13
2022-10-18T16:18:46.634Z,0.50
2022-10-18T16:21:20.949Z,1.50
2022-10-18T16:23:50.287Z,1.65
2022-10-18T16:26:20.464Z,1.30
2022-10-18T16:28:50.242Z,1.17
2022-10-18T16:31:22.198Z,0.75
2022-10-18T16:33:51.897Z,4.93
2022-10-18T16:36:24.226Z,6.25
2022-10-18T16:38:55.015Z,7.45
2022-10-18T16:41:23.677Z,4.80
2022-10-18T16:43:52.274Z,5.97
2022-10-18T16:46:23.428Z,0.85
2022-10-18T16:48:52.769Z,0.82
2022-10-18T16:51:22.476Z,0.52
2022-10-18T16:53:53.256Z,1.05
2022-10-18T16:56:25.359Z,1.17
2022-10-18T16:58:54.687Z,1.42
2022-10-18T17:01:25.146Z,9.32
2022-10-18T17:03:55.258Z,1.88
2022-10-18T17:06:27.399Z,1.75
2022-10-18T17:08:56.939Z,1.92
2022-10-18T17:11:28.275Z,5.03
2022-10-18T17:13:58.176Z,1.70
2022-10-18T17:19:06.279Z,1.10
2022-10-18T17:21:36.207Z,5.07
2022-10-18T17:24:06.144Z,4.55
2022-10-18T17:26:34.817Z,3.17
2022-10-18T17:29:08.095Z,3.97
2022-10-18T17:31:36.857Z,1.90
2022-10-18T17:34:05.310Z,3.17
2022-10-18T17:36:35.768Z,1.45
2022-10-18T17:39:04.823Z,2.15
2022-10-18T17:41:33.326Z,1.95
2022-10-18T17:44:04.019Z,1.42
2022-10-18T17:46:32.524Z,1.58
2022-10-18T17:49:01.018Z,2.33
2022-10-18T17:51:29.602Z,2.30
2022-10-18T17:53:59.117Z,2.42
2022-10-18T17:56:32.853Z,2.05
2022-10-18T17:59:01.232Z,5.38
2022-10-18T18:01:29.721Z,4.15
2022-10-18T18:03:59.985Z,6.75
2022-10-18T18:06:31.979Z,3.67
2022-10-18T18:09:06.876Z,4.28
2022-10-18T18:11:35.512Z,3.63
2022-10-18T18:14:08.849Z,2.90
2022-10-18T18:16:38.676Z,5.68
2022-10-18T18:19:09.804Z,5.70
2022-10-18T18:21:39.341Z,3.70
2022-10-18T18:24:10.795Z,2.85
2022-10-18T18:26:40.980Z,4.70
2022-10-18T18:29:09.524Z,2.90
2022-10-18T18:31:40.259Z,3.10
2022-10-18T18:34:11.392Z,11.45
2022-10-18T18:36:40.227Z,5.53
2022-10-18T18:39:17.437Z,2.40
2022-10-18T18:41:46.048Z,3.17
2022-10-18T18:44:14.527Z,2.97
2022-10-18T18:46:42.802Z,5.47
2022-10-18T18:49:12.535Z,3.78
2022-10-18T18:51:41.755Z,2.55
2022-10-18T18:54:13.811Z,4.90
2022-10-18T18:56:43.520Z,3.83
2022-10-18T18:59:15.416Z,3.70
2022-10-18T19:01:44.235Z,29.98
2022-10-18T19:04:12.641Z,14.45
2022-10-18T19:06:43.333Z,22.25
2022-10-18T19:09:19.407Z,8.70
2022-10-18T19:11:49.358Z,3.25
2022-10-18T19:14:17.817Z,3.20
2022-10-18T19:16:50.417Z,2.85
2022-10-18T19:19:20.788Z,2.75
2022-10-18T19:21:52.291Z,4.28
2022-10-18T19:24:23.599Z,4.53
2022-10-18T19:26:53.940Z,5.40
2022-10-18T19:29:25.197Z,5.25
2022-10-18T19:31:56.669Z,14.77
2022-10-18T19:34:27.408Z,9.98
2022-10-18T19:36:56.306Z,10.15
2022-10-18T19:39:27.966Z,12.00
2022-10-18T19:41:59.006Z,11.57
2022-10-18T19:44:31.848Z,13.07
2022-10-18T19:47:00.612Z,9.65
2022-10-18T19:49:29.142Z,7.38
2022-10-18T19:51:58.258Z,10.55
2022-10-18T19:54:28.192Z,6.47
2022-10-18T19:56:56.754Z,4.63
2022-10-18T19:59:25.876Z,6.65
2022-10-18T20:01:54.502Z,4.90
2022-10-18T20:04:23.006Z,8.10
2022-10-18T20:06:52.340Z,4.95
2022-10-18T20:09:22.654Z,3.50
2022-10-18T20:11:52.240Z,3.55
2022-10-18T20:14:21.153Z,6.78
2022-10-18T20:16:49.854Z,3.85
2022-10-18T20:19:18.367Z,8.65
2022-10-18T20:21:46.865Z,9.02
2022-10-18T20:24:15.426Z,4.57
2022-10-18T20:26:44.100Z,14.35
2022-10-18T20:29:13.882Z,7.53
2022-10-18T20:31:42.198Z,12.13
2022-10-18T20:34:13.265Z,7.10
2022-10-18T20:36:42.872Z,8.63
2022-10-18T20:39:11.393Z,5.15
2022-10-18T20:41:41.666Z,5.53
2022-10-18T20:44:16.622Z,5.72
2022-10-18T20:46:45.991Z,9.43
2022-10-18T20:49:16.937Z,9.55
2022-10-18T20:51:45.775Z,6.25
2022-10-18T20:54:14.392Z,9.73
2022-10-18T20:56:42.869Z,4.90
2022-10-18T20:59:11.506Z,4.72
2022-10-18T21:01:41.182Z,9.52
2022-10-18T21:04:11.340Z,6.80
2022-10-18T21:06:42.149Z,4.68
2022-10-18T21:09:13.665Z,6.18
2022-10-18T21:11:44.800Z,10.23
2022-10-18T21:14:15.574Z,4.75
2022-10-18T21:16:45.733Z,5.20
2022-10-18T21:19:17.134Z,7.18
2022-10-18T21:21:49.509Z,6.53
2022-10-18T21:24:19.325Z,6.28
2022-10-18T21:26:48.745Z,7.68
2022-10-18T21:29:21.975Z,7.07
2022-10-18T21:31:57.984Z,7.40
2022-10-18T21:34:27.280Z,8.18
2022-10-18T21:36:55.523Z,6.38
2022-10-18T21:39:25.276Z,6.05
2022-10-18T21:41:53.528Z,10.07
2022-10-18T21:44:22.086Z,8.95
2022-10-18T21:46:51.727Z,22.00
2022-10-18T21:49:20.284Z,9.15
2022-10-18T21:51:48.766Z,6.63
2022-10-18T21:54:18.311Z,4.65
2022-10-18T21:56:46.542Z,7.78
2022-10-18T21:59:15.528Z,3.58
2022-10-18T22:01:45.065Z,3.28
2022-10-18T22:04:23.588Z,7.60
2022-10-18T22:06:52.410Z,4.47
2022-10-18T22:09:22.268Z,2.65
2022-10-18T22:11:53.994Z,3.05
2022-10-18T22:14:22.710Z,2.55
2022-10-18T22:16:51.715Z,4.00
2022-10-18T22:19:21.391Z,2.78
2022-10-18T22:21:50.063Z,4.47
2022-10-18T22:24:19.133Z,2.35
2022-10-18T22:26:47.746Z,10.80
2022-10-18T22:29:19.670Z,4.10
2022-10-18T22:31:50.437Z,3.85
2022-10-18T22:34:22.512Z,3.17
2022-10-18T22:36:51.621Z,3.38
2022-10-18T22:39:20.346Z,3.85
2022-10-18T22:41:52.051Z,3.63
2022-10-18T22:44:20.599Z,4.22
2022-10-18T22:46:49.199Z,6.95
2022-10-18T22:49:17.618Z,12.13
2022-10-18T22:51:47.175Z,11.57
2022-10-18T22:54:15.796Z,8.82
2022-10-18T22:56:44.101Z,11.10
2022-10-18T22:59:12.680Z,8.93
2022-10-18T23:01:40.853Z,13.00
2022-10-18T23:04:09.245Z,7.18
2022-10-18T23:06:38.025Z,6.80
2022-10-18T23:09:11.193Z,13.57
2022-10-18T23:11:39.609Z,11.60
2022-10-18T23:14:08.455Z,16.23
2022-10-18T23:16:37.068Z,8.75
2022-10-18T23:19:05.599Z,11.68
2022-10-18T23:21:35.308Z,11.73
2022-10-18T23:24:03.614Z,11.95
2022-10-18T23:26:33.875Z,13.50
2022-10-18T23:29:02.447Z,11.95
2022-10-18T23:31:34.021Z,13.45
2022-10-18T23:34:06.043Z,17.73
2022-10-18T23:36:35.345Z,15.02
2022-10-18T23:39:04.330Z,18.35
2022-10-18T23:41:34.128Z,15.75
2022-10-18T23:44:02.734Z,15.27
2022-10-18T23:46:31.287Z,12.55
2022-10-18T23:48:59.851Z,23.20
2022-10-18T23:51:28.398Z,18.73
2022-10-18T23:53:56.899Z,19.00
2022-10-18T23:56:25.093Z,11.05
2022-10-18T23:58:54.697Z,9.77
